world map with AKB marked

AKB - Airport

This information may not be accurate or current and is not valid for navigation or flight planning. No warranty of fitness for any purpose is made or implied.

flag of Alaskaflag of United States

Donate via PayPal

Additional information is available on the NEW Great Circle Mapper

Location
City:  Atka, Alaska, United States
ICAO / IATA:PAAK / AKB
FAA:AKA

Details
Type:Airport (Airfield)
Use:Public/Civil
Latitude:52░13'14"N (52.220586)
Longitude:174░12'22"W (-174.206182)
Datum:WGS 1984
Elevation:56 ft (17 m)
Runways:1
Longest:4500 × 100 ft (1372 × 30.5 m)

Time
Timezone:UTC+24:08 (DST+27:08)
Local Time:

Weather
METAR:PAAK  040936Z 12009KT 10SM SCT019 BKN031 OVC055 04/02 A2931 RMK AO1

Related Locations
Nearby:
Farthest:FAGE: 11327 mi / 18229 km
Gough Island (Conšalo ┴lvares), TA, SH

Find:

   beyond  
but within

Other Information
Maps:
Links:
Sources:

  

Sectional Chart

Flight Planning
at skyvector.com

 


Great Circle Mapper   Great Circle Mapper
Great Circle Mapper FAQ   Great Circle Mapper FAQ
  Karl's Home Page
KLS▓   KLS▓ Home
   GC on Facebook
Airlines of the World   Airlines of the World
Donate via PayPal


Copyright © 2004-2015, Karl L. Swartz. All rights reserved.
All trademarks mentioned herein belong to their respective owners.

Please see credits for attribution and copyright information.

Karl Swartz <karl@kls2.com>
  Powered by FreeBSD
Valid HTML 4.01!
Labeled with ICRA
hCard Microformat
Geo Microformat